sensor_id;sensor_type;location;lat;lon;timestamp;pressure;altitude;pressure_sealevel;temperature;humidity
20077;BME280;12348;42.710;23.378;2024-02-14T00:01:19;94830.19;;;5.69;100.00
20077;BME280;12348;42.710;23.378;2024-02-14T00:03:49;94836.84;;;5.71;100.00
20077;BME280;12348;42.710;23.378;2024-02-14T00:06:15;94836.59;;;5.68;100.00
20077;BME280;12348;42.710;23.378;2024-02-14T00:08:42;94843.00;;;5.67;100.00
20077;BME280;12348;42.710;23.378;2024-02-14T00:11:09;94838.19;;;5.64;100.00
20077;BME280;12348;42.710;23.378;2024-02-14T00:13:35;94842.72;;;5.63;100.00
20077;BME280;12348;42.710;23.378;2024-02-14T00:16:05;94836.06;;;5.61;100.00
20077;BME280;12348;42.710;23.378;2024-02-14T00:18:32;94839.25;;;5.57;100.00
20077;BME280;12348;42.710;23.378;2024-02-14T00:20:59;94837.66;;;5.56;100.00
20077;BME280;12348;42.710;23.378;2024-02-14T00:23:26;94843.78;;;5.62;100.00
20077;BME280;12348;42.710;23.378;2024-02-14T00:25:52;94842.75;;;5.68;100.00
20077;BME280;12348;42.710;23.378;2024-02-14T00:28:19;94842.19;;;5.66;100.00
20077;BME280;12348;42.710;23.378;2024-02-14T00:30:47;94849.97;;;5.68;100.00
20077;BME280;12348;42.710;23.378;2024-02-14T00:33:15;94852.09;;;5.66;100.00
20077;BME280;12348;42.710;23.378;2024-02-14T00:35:41;94852.59;;;5.63;100.00
20077;BME280;12348;42.710;23.378;2024-02-14T00:38:08;94850.22;;;5.61;100.00
20077;BME280;12348;42.710;23.378;2024-02-14T00:40:35;94857.94;;;5.63;100.00
20077;BME280;12348;42.710;23.378;2024-02-14T00:43:02;94855.81;;;5.75;100.00
20077;BME280;12348;42.710;23.378;2024-02-14T00:45:28;94854.50;;;5.72;100.00
20077;BME280;12348;42.710;23.378;2024-02-14T00:47:55;94856.38;;;5.72;100.00
20077;BME280;12348;42.710;23.378;2024-02-14T00:50:24;94851.00;;;5.67;100.00
20077;BME280;12348;42.710;23.378;2024-02-14T00:52:51;94851.53;;;5.64;100.00
20077;BME280;12348;42.710;23.378;2024-02-14T00:55:17;94852.59;;;5.63;100.00
20077;BME280;12348;42.710;23.378;2024-02-14T00:57:44;94854.47;;;5.62;100.00
20077;BME280;12348;42.710;23.378;2024-02-14T01:02:54;94854.22;;;5.69;100.00
20077;BME280;12348;42.710;23.378;2024-02-14T01:05:21;94857.41;;;5.66;100.00
20077;BME280;12348;42.710;23.378;2024-02-14T01:07:49;94855.03;;;5.64;100.00
20077;BME280;12348;42.710;23.378;2024-02-14T01:10:16;94859.81;;;5.62;100.00
20077;BME280;12348;42.710;23.378;2024-02-14T01:12:43;94860.09;;;5.61;100.00
20077;BME280;12348;42.710;23.378;2024-02-14T01:15:10;94856.88;;;5.58;100.00
20077;BME280;12348;42.710;23.378;2024-02-14T01:17:37;94866.75;;;5.58;100.00
20077;BME280;12348;42.710;23.378;2024-02-14T01:20:04;94853.66;;;5.67;100.00
20077;BME280;12348;42.710;23.378;2024-02-14T01:22:33;94850.47;;;5.75;100.00
20077;BME280;12348;42.710;23.378;2024-02-14T01:25:03;94853.69;;;5.72;100.00
20077;BME280;12348;42.710;23.378;2024-02-14T01:27:30;94854.22;;;5.69;100.00
20077;BME280;12348;42.710;23.378;2024-02-14T01:29:57;94849.69;;;5.74;100.00
20077;BME280;12348;42.710;23.378;2024-02-14T01:32:23;94847.00;;;5.69;100.00
20077;BME280;12348;42.710;23.378;2024-02-14T01:34:51;94847.28;;;5.68;100.00
20077;BME280;12348;42.710;23.378;2024-02-14T01:37:18;94841.91;;;5.63;100.00
20077;BME280;12348;42.710;23.378;2024-02-14T01:39:46;94850.75;;;5.68;100.00
20077;BME280;12348;42.710;23.378;2024-02-14T01:42:14;94848.59;;;5.70;100.00
20077;BME280;12348;42.710;23.378;2024-02-14T01:44:40;94846.75;;;5.66;100.00
20077;BME280;12348;42.710;23.378;2024-02-14T01:47:08;94848.84;;;5.64;100.00
20077;BME280;12348;42.710;23.378;2024-02-14T01:49:36;94846.19;;;5.58;100.00
20077;BME280;12348;42.710;23.378;2024-02-14T01:52:04;94858.47;;;5.59;100.00
20077;BME280;12348;42.710;23.378;2024-02-14T01:54:31;94857.16;;;5.57;100.00
20077;BME280;12348;42.710;23.378;2024-02-14T01:56:58;94848.06;;;5.53;100.00
20077;BME280;12348;42.710;23.378;2024-02-14T01:59:27;94848.06;;;5.58;100.00
20077;BME280;12348;42.710;23.378;2024-02-14T02:01:54;94852.59;;;5.63;100.00
20077;BME280;12348;42.710;23.378;2024-02-14T02:04:21;94847.78;;;5.59;100.00
20077;BME280;12348;42.710;23.378;2024-02-14T02:06:48;94858.75;;;5.63;100.00
20077;BME280;12348;42.710;23.378;2024-02-14T02:09:14;94849.13;;;5.62;100.00
20077;BME280;12348;42.710;23.378;2024-02-14T02:11:48;94851.81;;;5.62;100.00
20077;BME280;12348;42.710;23.378;2024-02-14T02:14:16;94857.16;;;5.62;100.00
20077;BME280;12348;42.710;23.378;2024-02-14T02:16:44;94862.22;;;5.58;100.00
20077;BME280;12348;42.710;23.378;2024-02-14T02:19:11;94859.03;;;5.56;100.00
20077;BME280;12348;42.710;23.378;2024-02-14T02:21:38;94868.88;;;5.56;100.00
20077;BME280;12348;42.710;23.378;2024-02-14T02:24:06;94865.72;;;5.64;100.00
20077;BME280;12348;42.710;23.378;2024-02-14T02:26:34;94870.81;;;5.76;100.00
20077;BME280;12348;42.710;23.378;2024-02-14T02:29:00;94865.19;;;5.72;100.00
20077;BME280;12348;42.710;23.378;2024-02-14T02:31:27;94874.25;;;5.66;100.00
20077;BME280;12348;42.710;23.378;2024-02-14T02:33:53;94879.59;;;5.66;100.00
20077;BME280;12348;42.710;23.378;2024-02-14T02:36:20;94882.25;;;5.61;100.00
20077;BME280;12348;42.710;23.378;2024-02-14T02:38:49;94887.06;;;5.64;100.00
20077;BME280;12348;42.710;23.378;2024-02-14T02:41:18;94884.41;;;5.74;100.00
20077;BME280;12348;42.710;23.378;2024-02-14T02:43:45;94889.22;;;5.72;100.00
20077;BME280;12348;42.710;23.378;2024-02-14T02:46:12;94897.75;;;5.69;100.00
20077;BME280;12348;42.710;23.378;2024-02-14T02:48:38;94891.34;;;5.65;100.00
20077;BME280;12348;42.710;23.378;2024-02-14T02:51:05;94894.25;;;5.58;100.00
20077;BME280;12348;42.710;23.378;2024-02-14T02:53:32;94893.19;;;5.59;100.00
20077;BME280;12348;42.710;23.378;2024-02-14T02:55:59;94903.34;;;5.57;100.00
20077;BME280;12348;42.710;23.378;2024-02-14T02:58:27;94903.34;;;5.57;100.00
20077;BME280;12348;42.710;23.378;2024-02-14T03:00:54;94905.75;;;5.59;100.00
20077;BME280;12348;42.710;23.378;2024-02-14T03:03:23;94907.09;;;5.56;100.00
20077;BME280;12348;42.710;23.378;2024-02-14T03:05:53;94914.31;;;5.61;100.00
20077;BME280;12348;42.710;23.378;2024-02-14T03:08:20;94908.41;;;5.54;100.00
20077;BME280;12348;42.710;23.378;2024-02-14T03:10:50;94912.16;;;5.58;100.00
20077;BME280;12348;42.710;23.378;2024-02-14T03:13:17;94916.19;;;5.61;100.00
20077;BME280;12348;42.710;23.378;2024-02-14T03:15:47;94917.78;;;5.56;100.00
20077;BME280;12348;42.710;23.378;2024-02-14T03:18:14;94926.03;;;5.55;100.00
20077;BME280;12348;42.710;23.378;2024-02-14T03:20:41;94926.56;;;5.52;100.00
20077;BME280;12348;42.710;23.378;2024-02-14T03:23:07;94932.41;;;5.49;100.00
20077;BME280;12348;42.710;23.378;2024-02-14T03:25:34;94930.53;;;5.44;100.00
20077;BME280;12348;42.710;23.378;2024-02-14T03:28:02;94938.00;;;5.42;100.00
20077;BME280;12348;42.710;23.378;2024-02-14T03:30:34;94943.34;;;5.42;100.00
20077;BME280;12348;42.710;23.378;2024-02-14T03:33:02;94944.72;;;5.50;100.00
20077;BME280;12348;42.710;23.378;2024-02-14T03:35:29;94939.91;;;5.47;100.00
20077;BME280;12348;42.710;23.378;2024-02-14T03:37:56;94948.72;;;5.47;100.00
20077;BME280;12348;42.710;23.378;2024-02-14T03:40:23;94942.84;;;5.45;100.00
20077;BME280;12348;42.710;23.378;2024-02-14T03:42:49;94956.19;;;5.45;100.00
20077;BME280;12348;42.710;23.378;2024-02-14T03:45:17;94951.41;;;5.57;100.00
20077;BME280;12348;42.710;23.378;2024-02-14T03:47:43;94961.81;;;5.59;100.00
20077;BME280;12348;42.710;23.378;2024-02-14T03:50:11;94959.16;;;5.59;100.00
20077;BME280;12348;42.710;23.378;2024-02-14T03:52:38;94959.94;;;5.59;100.00
20077;BME280;12348;42.710;23.378;2024-02-14T03:55:05;94958.34;;;5.64;100.00
20077;BME280;12348;42.710;23.378;2024-02-14T03:57:34;94955.16;;;5.67;100.00
20077;BME280;12348;42.710;23.378;2024-02-14T04:00:04;94955.16;;;5.56;100.00
20077;BME280;12348;42.710;23.378;2024-02-14T04:02:35;94955.41;;;5.60;100.00
20077;BME280;12348;42.710;23.378;2024-02-14T04:05:02;94957.00;;;5.51;100.00
20077;BME280;12348;42.710;23.378;2024-02-14T04:07:30;94959.38;;;5.42;100.00
20077;BME280;12348;42.710;23.378;2024-02-14T04:09:57;94966.81;;;5.40;100.00
20077;BME280;12348;42.710;23.378;2024-02-14T04:12:23;94961.22;;;5.37;100.00
20077;BME280;12348;42.710;23.378;2024-02-14T04:14:50;94965.22;;;5.34;100.00
20077;BME280;12348;42.710;23.378;2024-02-14T04:17:17;94971.59;;;5.28;100.00
20077;BME280;12348;42.710;23.378;2024-02-14T04:19:43;94973.16;;;5.24;100.00
20077;BME280;12348;42.710;23.378;2024-02-14T04:22:10;94983.84;;;5.24;100.00
20077;BME280;12348;42.710;23.378;2024-02-14T04:24:38;94980.91;;;5.25;100.00
20077;BME280;12348;42.710;23.378;2024-02-14T04:27:05;94980.59;;;5.17;100.00
20077;BME280;12348;42.710;23.378;2024-02-14T04:29:32;94981.97;;;5.24;100.00
20077;BME280;12348;42.710;23.378;2024-02-14T04:32:00;94985.72;;;5.28;100.00
20077;BME280;12348;42.710;23.378;2024-02-14T04:34:27;94987.03;;;5.26;100.00
20077;BME280;12348;42.710;23.378;2024-02-14T04:36:55;94992.38;;;5.26;100.00
20077;BME280;12348;42.710;23.378;2024-02-14T04:39:22;94987.88;;;5.31;100.00
20077;BME280;12348;42.710;23.378;2024-02-14T04:41:50;94992.44;;;5.31;100.00
20077;BME280;12348;42.710;23.378;2024-02-14T04:44:18;94994.53;;;5.24;100.00
20077;BME280;12348;42.710;23.378;2024-02-14T04:46:44;95003.06;;;5.26;100.00
20077;BME280;12348;42.710;23.378;2024-02-14T04:49:11;95010.03;;;5.27;100.00
20077;BME280;12348;42.710;23.378;2024-02-14T04:51:40;95008.41;;;5.26;100.00
20077;BME280;12348;42.710;23.378;2024-02-14T04:54:07;95004.91;;;5.20;100.00
20077;BME280;12348;42.710;23.378;2024-02-14T04:56:34;95011.06;;;5.21;100.00
20077;BME280;12348;42.710;23.378;2024-02-14T04:59:02;95009.97;;;5.17;100.00
20077;BME280;12348;42.710;23.378;2024-02-14T05:01:30;95011.03;;;5.16;100.00
20077;BME280;12348;42.710;23.378;2024-02-14T05:03:57;95018.78;;;5.22;100.00
20077;BME280;12348;42.710;23.378;2024-02-14T05:06:23;95016.97;;;5.28;100.00
20077;BME280;12348;42.710;23.378;2024-02-14T05:08:50;95026.34;;;5.30;100.00
20077;BME280;12348;42.710;23.378;2024-02-14T05:11:16;95022.03;;;5.24;100.00
20077;BME280;12348;42.710;23.378;2024-02-14T05:13:44;95040.69;;;5.24;100.00
20077;BME280;12348;42.710;23.378;2024-02-14T05:16:13;95038.25;;;5.18;100.00
20077;BME280;12348;42.710;23.378;2024-02-14T05:18:40;95046.31;;;5.23;100.00
20077;BME280;12348;42.710;23.378;2024-02-14T05:21:07;95042.53;;;5.19;100.00
20077;BME280;12348;42.710;23.378;2024-02-14T05:23:33;95039.84;;;5.19;100.00
20077;BME280;12348;42.710;23.378;2024-02-14T05:26:01;95053.19;;;5.14;100.00
20077;BME280;12348;42.710;23.378;2024-02-14T05:28:28;95060.88;;;5.10;100.00
20077;BME280;12348;42.710;23.378;2024-02-14T05:30:56;95064.88;;;5.07;100.00
20077;BME280;12348;42.710;23.378;2024-02-14T05:33:24;95063.81;;;5.08;100.00
20077;BME280;12348;42.710;23.378;2024-02-14T05:35:51;95067.00;;;5.05;100.00
20077;BME280;12348;42.710;23.378;2024-02-14T05:38:18;95069.09;;;5.03;100.00
20077;BME280;12348;42.710;23.378;2024-02-14T05:40:46;95079.88;;;5.14;100.00
20077;BME280;12348;42.710;23.378;2024-02-14T05:43:12;95080.75;;;5.24;100.00
20077;BME280;12348;42.710;23.378;2024-02-14T05:45:39;95085.22;;;5.19;100.00
20077;BME280;12348;42.710;23.378;2024-02-14T05:48:07;95090.06;;;5.22;100.00
20077;BME280;12348;42.710;23.378;2024-02-14T05:50:35;95088.19;;;5.22;100.00
20077;BME280;12348;42.710;23.378;2024-02-14T05:53:03;95096.19;;;5.22;100.00
20077;BME280;12348;42.710;23.378;2024-02-14T05:55:30;95089.69;;;5.45;100.00
20077;BME280;12348;42.710;23.378;2024-02-14T05:57:57;95090.25;;;5.52;100.00
20077;BME280;12348;42.710;23.378;2024-02-14T06:00:24;95098.53;;;5.51;100.00
20077;BME280;12348;42.710;23.378;2024-02-14T06:02:51;95103.22;;;5.33;100.00
20077;BME280;12348;42.710;23.378;2024-02-14T06:05:18;95106.63;;;5.24;100.00
20077;BME280;12348;42.710;23.378;2024-02-14T06:07:47;95112.47;;;5.21;100.00
20077;BME280;12348;42.710;23.378;2024-02-14T06:10:13;95117.53;;;5.17;100.00
20077;BME280;12348;42.710;23.378;2024-02-14T06:12:40;95114.00;;;5.11;100.00
20077;BME280;12348;42.710;23.378;2024-02-14T06:15:08;95127.34;;;5.11;100.00
20077;BME280;12348;42.710;23.378;2024-02-14T06:17:35;95119.88;;;5.08;100.00
20077;BME280;12348;42.710;23.378;2024-02-14T06:20:02;95122.53;;;5.08;100.00
20077;BME280;12348;42.710;23.378;2024-02-14T06:22:31;95124.59;;;5.01;100.00
20077;BME280;12348;42.710;23.378;2024-02-14T06:24:59;95135.34;;;5.11;100.00
20077;BME280;12348;42.710;23.378;2024-02-14T06:27:26;95127.09;;;5.13;100.00
20077;BME280;12348;42.710;23.378;2024-02-14T06:29:53;95137.28;;;5.16;100.00
20077;BME280;12348;42.710;23.378;2024-02-14T06:32:20;95139.16;;;5.21;100.00
20077;BME280;12348;42.710;23.378;2024-02-14T06:34:47;95138.16;;;5.27;100.00
20077;BME280;12348;42.710;23.378;2024-02-14T06:37:14;95142.91;;;5.20;100.00
20077;BME280;12348;42.710;23.378;2024-02-14T06:39:40;95140.34;;;5.35;100.00
20077;BME280;12348;42.710;23.378;2024-02-14T06:42:08;95145.59;;;5.25;100.00
20077;BME280;12348;42.710;23.378;2024-02-14T06:44:35;95152.25;;;5.22;100.00
20077;BME280;12348;42.710;23.378;2024-02-14T06:47:02;95147.19;;;5.26;100.00
20077;BME280;12348;42.710;23.378;2024-02-14T06:49:28;95149.56;;;5.22;100.00
20077;BME280;12348;42.710;23.378;2024-02-14T06:51:55;95143.50;;;5.27;100.00
20077;BME280;12348;42.710;23.378;2024-02-14T06:54:22;95143.56;;;5.37;100.00
20077;BME280;12348;42.710;23.378;2024-02-14T06:56:48;95150.44;;;5.28;100.00
20077;BME280;12348;42.710;23.378;2024-02-14T06:59:16;95160.09;;;5.34;100.00
20077;BME280;12348;42.710;23.378;2024-02-14T07:01:43;95157.94;;;5.31;100.00
20077;BME280;12348;42.710;23.378;2024-02-14T07:04:10;95164.84;;;5.27;100.00
20077;BME280;12348;42.710;23.378;2024-02-14T07:06:37;95179.22;;;5.26;100.00
20077;BME280;12348;42.710;23.378;2024-02-14T07:09:03;95183.28;;;5.28;100.00
20077;BME280;12348;42.710;23.378;2024-02-14T07:11:30;95180.41;;;5.40;100.00
20077;BME280;12348;42.710;23.378;2024-02-14T07:13:57;95181.28;;;5.46;100.00
20077;BME280;12348;42.710;23.378;2024-02-14T07:16:25;95183.69;;;5.47;100.00
20077;BME280;12348;42.710;23.378;2024-02-14T07:18:52;95193.88;;;5.55;100.00
20077;BME280;12348;42.710;23.378;2024-02-14T07:21:18;95186.13;;;5.54;100.00
20077;BME280;12348;42.710;23.378;2024-02-14T07:23:45;95187.53;;;5.62;100.00
20077;BME280;12348;42.710;23.378;2024-02-14T07:26:12;95193.47;;;5.69;100.00
20077;BME280;12348;42.710;23.378;2024-02-14T07:28:39;95204.13;;;5.69;100.00
20077;BME280;12348;42.710;23.378;2024-02-14T07:31:06;95192.94;;;5.72;100.00
20077;BME280;12348;42.710;23.378;2024-02-14T07:33:34;95191.88;;;5.73;100.00
20077;BME280;12348;42.710;23.378;2024-02-14T07:36:01;95195.13;;;5.80;100.00
20077;BME280;12348;42.710;23.378;2024-02-14T07:38:28;95210.56;;;5.73;100.00
20077;BME280;12348;42.710;23.378;2024-02-14T07:40:55;95201.47;;;5.69;100.00
20077;BME280;12348;42.710;23.378;2024-02-14T07:43:21;95201.72;;;5.67;100.00
20077;BME280;12348;42.710;23.378;2024-02-14T07:45:48;95200.97;;;5.72;100.00
20077;BME280;12348;42.710;23.378;2024-02-14T07:48:15;95204.47;;;5.77;100.00
20077;BME280;12348;42.710;23.378;2024-02-14T07:50:43;95210.56;;;5.73;100.00
20077;BME280;12348;42.710;23.378;2024-02-14T07:53:10;95204.22;;;5.79;100.00
20077;BME280;12348;42.710;23.378;2024-02-14T07:55:37;95209.06;;;5.87;100.00
20077;BME280;12348;42.710;23.378;2024-02-14T07:58:04;95214.72;;;5.91;100.00
20077;BME280;12348;42.710;23.378;2024-02-14T08:00:31;95209.94;;;5.93;100.00
20077;BME280;12348;42.710;23.378;2024-02-14T08:02:58;95202.16;;;5.91;100.00
20077;BME280;12348;42.710;23.378;2024-02-14T08:05:25;95220.41;;;5.99;100.00
20077;BME280;12348;42.710;23.378;2024-02-14T08:07:53;95220.41;;;5.99;100.00
20077;BME280;12348;42.710;23.378;2024-02-14T08:10:20;95216.59;;;5.90;100.00
20077;BME280;12348;42.710;23.378;2024-02-14T08:12:47;95222.50;;;5.97;100.00
20077;BME280;12348;42.710;23.378;2024-02-14T08:15:14;95223.97;;;5.78;100.00
20077;BME280;12348;42.710;23.378;2024-02-14T08:17:40;95236.03;;;5.86;100.00
20077;BME280;12348;42.710;23.378;2024-02-14T08:20:08;95236.69;;;5.61;100.00
20077;BME280;12348;42.710;23.378;2024-02-14T08:22:35;95240.34;;;5.54;100.00
20077;BME280;12348;42.710;23.378;2024-02-14T08:25:03;95246.47;;;5.50;100.00
20077;BME280;12348;42.710;23.378;2024-02-14T08:27:30;95243.53;;;5.51;100.00
20077;BME280;12348;42.710;23.378;2024-02-14T08:29:57;95237.84;;;5.43;100.00
20077;BME280;12348;42.710;23.378;2024-02-14T08:32:24;95237.38;;;5.51;100.00
20077;BME280;12348;42.710;23.378;2024-02-14T08:34:51;95242.69;;;5.46;100.00
20077;BME280;12348;42.710;23.378;2024-02-14T08:37:17;95248.34;;;5.49;100.00
20077;BME280;12348;42.710;23.378;2024-02-14T08:39:44;95247.69;;;5.69;100.00
20077;BME280;12348;42.710;23.378;2024-02-14T08:42:12;95234.53;;;5.63;100.00
20077;BME280;12348;42.710;23.378;2024-02-14T08:44:39;95241.47;;;5.64;100.00
20077;BME280;12348;42.710;23.378;2024-02-14T08:47:08;95250.53;;;5.57;100.00
20077;BME280;12348;42.710;23.378;2024-02-14T08:49:35;95245.19;;;5.57;100.00
20077;BME280;12348;42.710;23.378;2024-02-14T08:52:02;95262.50;;;5.50;100.00
20077;BME280;12348;42.710;23.378;2024-02-14T08:54:29;95268.06;;;5.48;100.00
20077;BME280;12348;42.710;23.378;2024-02-14T08:56:58;95266.56;;;5.57;100.00
20077;BME280;12348;42.710;23.378;2024-02-14T08:59:26;95268.13;;;5.53;100.00
20077;BME280;12348;42.710;23.378;2024-02-14T09:01:53;95274.50;;;5.52;100.00
20077;BME280;12348;42.710;23.378;2024-02-14T09:04:19;95269.94;;;5.48;100.00
20077;BME280;12348;42.710;23.378;2024-02-14T09:06:46;95279.34;;;5.55;100.00
20077;BME280;12348;42.710;23.378;2024-02-14T09:09:13;95268.47;;;5.62;100.00
20077;BME280;12348;42.710;23.378;2024-02-14T09:11:44;95268.19;;;5.64;100.00
20077;BME280;12348;42.710;23.378;2024-02-14T09:14:11;95274.94;;;5.71;100.00
20077;BME280;12348;42.710;23.378;2024-02-14T09:16:40;95276.34;;;5.79;100.00
20077;BME280;12348;42.710;23.378;2024-02-14T09:19:07;95279.75;;;6.01;100.00
20077;BME280;12348;42.710;23.378;2024-02-14T09:21:35;95273.81;;;5.94;100.00
20077;BME280;12348;42.710;23.378;2024-02-14T09:24:02;95285.47;;;5.83;100.00
20077;BME280;12348;42.710;23.378;2024-02-14T09:26:29;95282.13;;;5.66;100.00
20077;BME280;12348;42.710;23.378;2024-02-14T09:28:55;95296.06;;;5.73;100.00
20077;BME280;12348;42.710;23.378;2024-02-14T09:31:23;95284.31;;;5.74;100.00
20077;BME280;12348;42.710;23.378;2024-02-14T09:33:51;95285.06;;;5.64;100.00
20077;BME280;12348;42.710;23.378;2024-02-14T09:36:22;95297.06;;;5.67;100.00
20077;BME280;12348;42.710;23.378;2024-02-14T09:38:48;95295.25;;;5.72;100.00
20077;BME280;12348;42.710;23.378;2024-02-14T09:41:17;95299.28;;;5.75;100.00
20077;BME280;12348;42.710;23.378;2024-02-14T09:43:47;95291.34;;;5.85;100.00
20077;BME280;12348;42.710;23.378;2024-02-14T09:46:15;95292.25;;;5.96;100.00
20077;BME280;12348;42.710;23.378;2024-02-14T09:48:43;95293.56;;;5.93;100.00
20077;BME280;12348;42.710;23.378;2024-02-14T09:51:12;95283.75;;;5.99;100.00
20077;BME280;12348;42.710;23.378;2024-02-14T09:53:39;95285.84;;;5.97;100.00
20077;BME280;12348;42.710;23.378;2024-02-14T09:56:09;95283.72;;;5.94;100.00
20077;BME280;12348;42.710;23.378;2024-02-14T09:58:36;95283.44;;;5.95;100.00
20077;BME280;12348;42.710;23.378;2024-02-14T10:01:04;95288.88;;;5.78;100.00
20077;BME280;12348;42.710;23.378;2024-02-14T10:03:32;95285.09;;;5.74;100.00
20077;BME280;12348;42.710;23.378;2024-02-14T10:05:59;95289.91;;;5.72;100.00
20077;BME280;12348;42.710;23.378;2024-02-14T10:08:27;95286.22;;;5.78;100.00
20077;BME280;12348;42.710;23.378;2024-02-14T10:10:56;95289.81;;;5.62;100.00
20077;BME280;12348;42.710;23.378;2024-02-14T10:13:26;95292.53;;;5.67;100.00
20077;BME280;12348;42.710;23.378;2024-02-14T10:15:53;95289.84;;;5.67;100.00
20077;BME280;12348;42.710;23.378;2024-02-14T10:18:20;95287.25;;;5.72;100.00
20077;BME280;12348;42.710;23.378;2024-02-14T10:20:54;95282.16;;;5.71;100.00
20077;BME280;12348;42.710;23.378;2024-02-14T10:23:21;95287.56;;;5.81;100.00
20077;BME280;12348;42.710;23.378;2024-02-14T10:25:52;95292.66;;;5.82;100.00
20077;BME280;12348;42.710;23.378;2024-02-14T10:28:20;95285.09;;;6.01;100.00
20077;BME280;12348;42.710;23.378;2024-02-14T10:30:47;95291.41;;;6.27;100.00
20077;BME280;12348;42.710;23.378;2024-02-14T10:33:16;95287.22;;;6.04;100.00
20077;BME280;12348;42.710;23.378;2024-02-14T10:35:43;95279.19;;;5.99;100.00
20077;BME280;12348;42.710;23.378;2024-02-14T10:38:11;95274.91;;;5.98;100.00
20077;BME280;12348;42.710;23.378;2024-02-14T10:40:38;95273.50;;;5.91;100.00
20077;BME280;12348;42.710;23.378;2024-02-14T10:43:06;95283.72;;;5.94;100.00
20077;BME280;12348;42.710;23.378;2024-02-14T10:45:34;95280.00;;;6.00;100.00
20077;BME280;12348;42.710;23.378;2024-02-14T10:48:04;95273.25;;;5.92;100.00
20077;BME280;12348;42.710;23.378;2024-02-14T10:50:33;95271.69;;;5.96;100.00
20077;BME280;12348;42.710;23.378;2024-02-14T10:53:04;95271.94;;;5.95;100.00
20077;BME280;12348;42.710;23.378;2024-02-14T10:55:33;95277.88;;;6.02;100.00
20077;BME280;12348;42.710;23.378;2024-02-14T10:58:00;95289.41;;;6.07;100.00
20077;BME280;12348;42.710;23.378;2024-02-14T11:00:30;95276.72;;;5.93;100.00
20077;BME280;12348;42.710;23.378;2024-02-14T11:02:58;95276.22;;;5.96;100.00
20077;BME280;12348;42.710;23.378;2024-02-14T11:05:26;95280.88;;;6.11;100.00
20077;BME280;12348;42.710;23.378;2024-02-14T11:07:52;95286.50;;;6.09;100.00
20077;BME280;12348;42.710;23.378;2024-02-14T11:10:22;95291.19;;;5.97;100.00
20077;BME280;12348;42.710;23.378;2024-02-14T11:12:50;95285.03;;;5.96;100.00
20077;BME280;12348;42.710;23.378;2024-02-14T11:15:19;95289.88;;;5.99;100.00
20077;BME280;12348;42.710;23.378;2024-02-14T11:17:48;95285.03;;;5.96;100.00
20077;BME280;12348;42.710;23.378;2024-02-14T11:20:18;95285.03;;;5.96;100.00
20077;BME280;12348;42.710;23.378;2024-02-14T11:22:55;95284.09;;;6.13;100.00
20077;BME280;12348;42.710;23.378;2024-02-14T11:25:28;95279.31;;;6.20;100.00
20077;BME280;12348;42.710;23.378;2024-02-14T11:27:59;95277.94;;;6.12;100.00
20077;BME280;12348;42.710;23.378;2024-02-14T11:30:31;95285.63;;;6.03;100.00
20077;BME280;12348;42.710;23.378;2024-02-14T11:33:15;95289.75;;;6.16;100.00
20077;BME280;12348;42.710;23.378;2024-02-14T11:35:43;95284.31;;;6.06;100.00
20077;BME280;12348;42.710;23.378;2024-02-14T11:38:10;95270.59;;;5.92;100.00
20077;BME280;12348;42.710;23.378;2024-02-14T11:40:38;95275.16;;;5.97;100.00
20077;BME280;12348;42.710;23.378;2024-02-14T11:43:11;95276.53;;;6.04;100.00
20077;BME280;12348;42.710;23.378;2024-02-14T11:45:38;95277.09;;;6.06;100.00
20077;BME280;12348;42.710;23.378;2024-02-14T11:48:08;95278.19;;;6.05;100.00
20077;BME280;12348;42.710;23.378;2024-02-14T11:50:38;95269.59;;;6.03;100.00
20077;BME280;12348;42.710;23.378;2024-02-14T11:53:05;95272.53;;;6.02;100.00
20077;BME280;12348;42.710;23.378;2024-02-14T11:55:34;95273.94;;;6.10;100.00
20077;BME280;12348;42.710;23.378;2024-02-14T11:58:02;95274.44;;;6.06;100.00
20077;BME280;12348;42.710;23.378;2024-02-14T12:00:29;95277.88;;;6.02;100.00
20077;BME280;12348;42.710;23.378;2024-02-14T12:02:56;95270.75;;;6.13;100.00
20077;BME280;12348;42.710;23.378;2024-02-14T12:05:22;95264.91;;;6.21;100.00
20077;BME280;12348;42.710;23.378;2024-02-14T12:07:51;95268.59;;;6.15;100.00
20077;BME280;12348;42.710;23.378;2024-02-14T12:10:19;95270.78;;;6.23;100.00
20077;BME280;12348;42.710;23.378;2024-02-14T12:12:47;95277.22;;;6.27;100.00
20077;BME280;12348;42.710;23.378;2024-02-14T12:15:14;95273.72;;;6.21;100.00
20077;BME280;12348;42.710;23.378;2024-02-14T12:17:41;95271.59;;;6.23;100.00
20077;BME280;12348;42.710;23.378;2024-02-14T12:20:09;95270.84;;;6.28;100.00
20077;BME280;12348;42.710;23.378;2024-02-14T12:22:36;95271.34;;;6.25;100.00
20077;BME280;12348;42.710;23.378;2024-02-14T12:25:05;95268.69;;;6.30;100.00
20077;BME280;12348;42.710;23.378;2024-02-14T12:27:33;95261.25;;;6.42;100.00
20077;BME280;12348;42.710;23.378;2024-02-14T12:30:03;95265.53;;;6.38;100.00
20077;BME280;12348;42.710;23.378;2024-02-14T12:32:30;95264.19;;;6.41;100.00
20077;BME280;12348;42.710;23.378;2024-02-14T12:34:57;95265.06;;;6.51;100.00
20077;BME280;12348;42.710;23.378;2024-02-14T12:37:23;95255.44;;;6.50;100.00
20077;BME280;12348;42.710;23.378;2024-02-14T12:39:50;95262.72;;;6.65;99.81
20077;BME280;12348;42.710;23.378;2024-02-14T12:42:19;95265.13;;;6.67;99.54
20077;BME280;12348;42.710;23.378;2024-02-14T12:44:50;95258.47;;;6.69;98.06
20077;BME280;12348;42.710;23.378;2024-02-14T12:47:17;95262.97;;;6.64;98.25
20077;BME280;12348;42.710;23.378;2024-02-14T12:49:47;95265.13;;;6.67;98.49
20077;BME280;12348;42.710;23.378;2024-02-14T12:52:14;95264.59;;;6.65;99.04
20077;BME280;12348;42.710;23.378;2024-02-14T12:54:40;95265.91;;;6.62;98.67